Airport ICAO


14:35 UTC

8°C


An affordable passengers' Moving Map for your aircraft. Made for the iPad and the iPhone
More information here

EGLC City


London UNITED KINGDOM   VFR


METAR EGLC 241420Z AUTO VRB03KT 9999 NCD 08/01 Q1012 0h15min

TAF EGLC 241353Z 2415/2422 29005KT CAVOK 0h42min





NOTAMS

OPEN